sensor_id;sensor_type;location;lat;lon;timestamp;P1;durP1;ratioP1;P2;durP2;ratioP2
27383;SDS011;14851;51.166;4.760;2023-05-23T00:01:08;39.65;;;28.20;;
27383;SDS011;14851;51.166;4.760;2023-05-23T00:03:34;37.00;;;25.17;;
27383;SDS011;14851;51.166;4.760;2023-05-23T00:06:00;37.50;;;25.95;;
27383;SDS011;14851;51.166;4.760;2023-05-23T00:08:26;37.50;;;25.50;;
27383;SDS011;14851;51.166;4.760;2023-05-23T00:10:52;29.77;;;23.42;;
27383;SDS011;14851;51.166;4.760;2023-05-23T00:13:18;29.83;;;22.98;;
27383;SDS011;14851;51.166;4.760;2023-05-23T00:15:44;33.85;;;26.17;;
27383;SDS011;14851;51.166;4.760;2023-05-23T00:18:10;38.05;;;28.67;;
27383;SDS011;14851;51.166;4.760;2023-05-23T00:20:39;38.70;;;30.63;;
27383;SDS011;14851;51.166;4.760;2023-05-23T00:23:08;43.22;;;30.27;;
27383;SDS011;14851;51.166;4.760;2023-05-23T00:25:35;43.97;;;31.52;;
27383;SDS011;14851;51.166;4.760;2023-05-23T00:28:01;40.25;;;30.17;;
27383;SDS011;14851;51.166;4.760;2023-05-23T00:30:31;39.90;;;30.20;;
27383;SDS011;14851;51.166;4.760;2023-05-23T00:32:58;40.33;;;29.38;;
27383;SDS011;14851;51.166;4.760;2023-05-23T00:35:25;42.10;;;28.48;;
27383;SDS011;14851;51.166;4.760;2023-05-23T00:37:51;36.78;;;27.05;;
27383;SDS011;14851;51.166;4.760;2023-05-23T00:40:18;33.30;;;24.50;;
27383;SDS011;14851;51.166;4.760;2023-05-23T00:42:46;31.40;;;23.17;;
27383;SDS011;14851;51.166;4.760;2023-05-23T00:45:12;34.20;;;22.70;;
27383;SDS011;14851;51.166;4.760;2023-05-23T00:47:39;32.10;;;22.15;;
27383;SDS011;14851;51.166;4.760;2023-05-23T00:50:09;30.90;;;20.80;;
27383;SDS011;14851;51.166;4.760;2023-05-23T00:52:37;24.52;;;18.40;;
27383;SDS011;14851;51.166;4.760;2023-05-23T00:55:03;28.48;;;18.08;;
27383;SDS011;14851;51.166;4.760;2023-05-23T00:57:30;21.75;;;15.98;;
27383;SDS011;14851;51.166;4.760;2023-05-23T01:00:02;18.13;;;14.45;;
27383;SDS011;14851;51.166;4.760;2023-05-23T01:02:28;23.83;;;15.70;;
27383;SDS011;14851;51.166;4.760;2023-05-23T01:05:00;19.25;;;13.13;;
27383;SDS011;14851;51.166;4.760;2023-05-23T01:07:27;16.65;;;12.95;;
27383;SDS011;14851;51.166;4.760;2023-05-23T01:09:53;16.73;;;12.40;;
27383;SDS011;14851;51.166;4.760;2023-05-23T01:15:07;17.23;;;11.85;;
27383;SDS011;14851;51.166;4.760;2023-05-23T01:20:42;17.17;;;11.10;;
27383;SDS011;14851;51.166;4.760;2023-05-23T01:28:47;14.88;;;10.70;;
27383;SDS011;14851;51.166;4.760;2023-05-23T01:31:18;14.88;;;11.15;;
27383;SDS011;14851;51.166;4.760;2023-05-23T01:33:48;15.18;;;11.77;;
27383;SDS011;14851;51.166;4.760;2023-05-23T01:36:17;14.82;;;11.38;;
27383;SDS011;14851;51.166;4.760;2023-05-23T01:38:43;17.38;;;12.65;;
27383;SDS011;14851;51.166;4.760;2023-05-23T01:41:12;20.52;;;14.80;;
27383;SDS011;14851;51.166;4.760;2023-05-23T01:43:37;20.50;;;15.93;;
27383;SDS011;14851;51.166;4.760;2023-05-23T01:46:04;22.23;;;17.00;;
27383;SDS011;14851;51.166;4.760;2023-05-23T01:51:01;21.27;;;16.98;;
27383;SDS011;14851;51.166;4.760;2023-05-23T01:53:27;22.65;;;17.70;;
27383;SDS011;14851;51.166;4.760;2023-05-23T01:55:56;19.80;;;16.85;;
27383;SDS011;14851;51.166;4.760;2023-05-23T01:58:22;22.27;;;15.75;;
27383;SDS011;14851;51.166;4.760;2023-05-23T02:00:52;22.63;;;15.75;;
27383;SDS011;14851;51.166;4.760;2023-05-23T02:03:18;21.02;;;14.40;;
27383;SDS011;14851;51.166;4.760;2023-05-23T02:05:44;17.73;;;14.48;;
27383;SDS011;14851;51.166;4.760;2023-05-23T02:08:11;20.27;;;13.98;;
27383;SDS011;14851;51.166;4.760;2023-05-23T02:10:38;18.90;;;14.00;;
27383;SDS011;14851;51.166;4.760;2023-05-23T02:13:04;20.98;;;14.38;;
27383;SDS011;14851;51.166;4.760;2023-05-23T02:15:30;21.17;;;14.23;;
27383;SDS011;14851;51.166;4.760;2023-05-23T02:17:56;19.17;;;14.52;;
27383;SDS011;14851;51.166;4.760;2023-05-23T02:20:22;23.27;;;14.95;;
27383;SDS011;14851;51.166;4.760;2023-05-23T02:22:51;22.35;;;14.68;;
27383;SDS011;14851;51.166;4.760;2023-05-23T02:25:17;23.42;;;15.02;;
27383;SDS011;14851;51.166;4.760;2023-05-23T02:27:42;22.75;;;15.50;;
27383;SDS011;14851;51.166;4.760;2023-05-23T02:30:11;23.25;;;14.82;;
27383;SDS011;14851;51.166;4.760;2023-05-23T02:32:37;22.48;;;15.43;;
27383;SDS011;14851;51.166;4.760;2023-05-23T02:35:03;20.25;;;14.05;;
27383;SDS011;14851;51.166;4.760;2023-05-23T02:37:30;23.92;;;15.52;;
27383;SDS011;14851;51.166;4.760;2023-05-23T02:39:58;19.05;;;13.48;;
27383;SDS011;14851;51.166;4.760;2023-05-23T02:42:24;21.02;;;13.75;;
27383;SDS011;14851;51.166;4.760;2023-05-23T02:44:50;18.92;;;12.63;;
27383;SDS011;14851;51.166;4.760;2023-05-23T02:47:16;20.20;;;12.45;;
27383;SDS011;14851;51.166;4.760;2023-05-23T02:49:42;20.75;;;12.77;;
27383;SDS011;14851;51.166;4.760;2023-05-23T02:52:08;18.67;;;11.15;;
27383;SDS011;14851;51.166;4.760;2023-05-23T02:54:36;21.17;;;12.25;;
27383;SDS011;14851;51.166;4.760;2023-05-23T02:57:02;18.35;;;12.15;;
27383;SDS011;14851;51.166;4.760;2023-05-23T02:59:39;18.35;;;11.93;;
27383;SDS011;14851;51.166;4.760;2023-05-23T03:02:05;24.35;;;13.02;;
27383;SDS011;14851;51.166;4.760;2023-05-23T03:04:31;20.52;;;12.35;;
27383;SDS011;14851;51.166;4.760;2023-05-23T03:06:57;18.15;;;11.40;;
27383;SDS011;14851;51.166;4.760;2023-05-23T03:09:29;22.00;;;12.45;;
27383;SDS011;14851;51.166;4.760;2023-05-23T03:11:59;22.05;;;12.75;;
27383;SDS011;14851;51.166;4.760;2023-05-23T03:14:26;19.65;;;13.18;;
27383;SDS011;14851;51.166;4.760;2023-05-23T03:16:57;20.33;;;12.07;;
27383;SDS011;14851;51.166;4.760;2023-05-23T03:19:23;22.05;;;12.80;;
27383;SDS011;14851;51.166;4.760;2023-05-23T03:21:49;19.38;;;11.95;;
27383;SDS011;14851;51.166;4.760;2023-05-23T03:24:16;19.30;;;12.48;;
27383;SDS011;14851;51.166;4.760;2023-05-23T03:26:42;17.58;;;11.55;;
27383;SDS011;14851;51.166;4.760;2023-05-23T03:29:10;19.85;;;11.75;;
27383;SDS011;14851;51.166;4.760;2023-05-23T03:31:38;19.55;;;11.00;;
27383;SDS011;14851;51.166;4.760;2023-05-23T03:34:04;19.92;;;10.93;;
27383;SDS011;14851;51.166;4.760;2023-05-23T03:36:31;22.73;;;10.40;;
27383;SDS011;14851;51.166;4.760;2023-05-23T03:38:58;14.88;;;10.65;;
27383;SDS011;14851;51.166;4.760;2023-05-23T03:41:24;16.58;;;10.60;;
27383;SDS011;14851;51.166;4.760;2023-05-23T03:43:53;16.83;;;11.10;;
27383;SDS011;14851;51.166;4.760;2023-05-23T03:46:19;14.90;;;10.18;;
27383;SDS011;14851;51.166;4.760;2023-05-23T03:48:45;17.20;;;9.85;;
27383;SDS011;14851;51.166;4.760;2023-05-23T03:51:14;13.55;;;9.30;;
27383;SDS011;14851;51.166;4.760;2023-05-23T03:53:41;12.20;;;8.90;;
27383;SDS011;14851;51.166;4.760;2023-05-23T03:56:07;14.70;;;10.10;;
27383;SDS011;14851;51.166;4.760;2023-05-23T03:58:33;19.13;;;9.55;;
27383;SDS011;14851;51.166;4.760;2023-05-23T04:01:04;16.00;;;9.40;;
27383;SDS011;14851;51.166;4.760;2023-05-23T04:03:31;14.95;;;9.30;;
27383;SDS011;14851;51.166;4.760;2023-05-23T04:05:58;14.25;;;9.13;;
27383;SDS011;14851;51.166;4.760;2023-05-23T04:08:27;17.60;;;9.88;;
27383;SDS011;14851;51.166;4.760;2023-05-23T04:10:54;16.30;;;9.07;;
27383;SDS011;14851;51.166;4.760;2023-05-23T04:13:22;14.80;;;8.80;;
27383;SDS011;14851;51.166;4.760;2023-05-23T04:15:49;17.13;;;9.95;;
27383;SDS011;14851;51.166;4.760;2023-05-23T04:18:19;17.90;;;9.95;;
27383;SDS011;14851;51.166;4.760;2023-05-23T04:20:45;12.23;;;8.57;;
27383;SDS011;14851;51.166;4.760;2023-05-23T04:23:11;16.02;;;9.38;;
27383;SDS011;14851;51.166;4.760;2023-05-23T04:25:39;14.57;;;9.73;;
27383;SDS011;14851;51.166;4.760;2023-05-23T04:28:10;13.95;;;9.35;;
27383;SDS011;14851;51.166;4.760;2023-05-23T04:30:37;16.98;;;9.18;;
27383;SDS011;14851;51.166;4.760;2023-05-23T04:33:05;17.13;;;9.68;;
27383;SDS011;14851;51.166;4.760;2023-05-23T04:35:34;13.45;;;8.98;;
27383;SDS011;14851;51.166;4.760;2023-05-23T04:38:04;13.05;;;9.23;;
27383;SDS011;14851;51.166;4.760;2023-05-23T04:40:30;15.10;;;8.90;;
27383;SDS011;14851;51.166;4.760;2023-05-23T04:43:17;12.43;;;8.65;;
27383;SDS011;14851;51.166;4.760;2023-05-23T04:45:50;12.63;;;8.27;;
27383;SDS011;14851;51.166;4.760;2023-05-23T04:48:36;12.90;;;8.18;;
27383;SDS011;14851;51.166;4.760;2023-05-23T04:51:03;16.27;;;8.32;;
27383;SDS011;14851;51.166;4.760;2023-05-23T04:53:35;16.25;;;8.18;;
27383;SDS011;14851;51.166;4.760;2023-05-23T04:56:01;14.23;;;8.77;;
27383;SDS011;14851;51.166;4.760;2023-05-23T04:58:28;16.40;;;8.57;;
27383;SDS011;14851;51.166;4.760;2023-05-23T05:01:00;14.93;;;9.07;;
27383;SDS011;14851;51.166;4.760;2023-05-23T05:03:25;14.30;;;8.70;;
27383;SDS011;14851;51.166;4.760;2023-05-23T05:05:51;14.85;;;9.57;;
27383;SDS011;14851;51.166;4.760;2023-05-23T05:08:19;14.98;;;9.85;;
27383;SDS011;14851;51.166;4.760;2023-05-23T05:10:45;16.25;;;10.18;;
27383;SDS011;14851;51.166;4.760;2023-05-23T05:13:11;19.10;;;10.45;;
27383;SDS011;14851;51.166;4.760;2023-05-23T05:15:44;20.05;;;10.52;;
27383;SDS011;14851;51.166;4.760;2023-05-23T05:18:11;18.17;;;10.18;;
27383;SDS011;14851;51.166;4.760;2023-05-23T05:20:38;19.60;;;10.65;;
27383;SDS011;14851;51.166;4.760;2023-05-23T05:23:09;24.15;;;11.07;;
27383;SDS011;14851;51.166;4.760;2023-05-23T05:25:36;24.42;;;10.88;;
27383;SDS011;14851;51.166;4.760;2023-05-23T05:28:06;23.58;;;11.27;;
27383;SDS011;14851;51.166;4.760;2023-05-23T05:30:48;23.25;;;9.68;;
27383;SDS011;14851;51.166;4.760;2023-05-23T05:33:20;23.08;;;10.05;;
27383;SDS011;14851;51.166;4.760;2023-05-23T05:35:58;16.13;;;8.48;;
27383;SDS011;14851;51.166;4.760;2023-05-23T05:38:24;20.10;;;8.80;;
27383;SDS011;14851;51.166;4.760;2023-05-23T05:40:50;21.48;;;8.55;;
27383;SDS011;14851;51.166;4.760;2023-05-23T05:43:16;19.13;;;7.95;;
27383;SDS011;14851;51.166;4.760;2023-05-23T05:45:42;20.30;;;7.95;;
27383;SDS011;14851;51.166;4.760;2023-05-23T05:48:08;20.65;;;7.85;;
27383;SDS011;14851;51.166;4.760;2023-05-23T05:50:35;17.20;;;6.97;;
27383;SDS011;14851;51.166;4.760;2023-05-23T05:53:01;15.60;;;7.30;;
27383;SDS011;14851;51.166;4.760;2023-05-23T05:55:30;16.25;;;7.03;;
27383;SDS011;14851;51.166;4.760;2023-05-23T05:57:56;15.55;;;7.22;;
27383;SDS011;14851;51.166;4.760;2023-05-23T06:00:24;19.83;;;7.57;;
27383;SDS011;14851;51.166;4.760;2023-05-23T06:02:55;15.95;;;6.72;;
27383;SDS011;14851;51.166;4.760;2023-05-23T06:05:40;14.52;;;6.38;;
27383;SDS011;14851;51.166;4.760;2023-05-23T06:08:07;17.40;;;7.32;;
27383;SDS011;14851;51.166;4.760;2023-05-23T06:10:33;19.02;;;6.93;;
27383;SDS011;14851;51.166;4.760;2023-05-23T06:13:01;20.58;;;6.72;;
27383;SDS011;14851;51.166;4.760;2023-05-23T06:15:28;18.77;;;6.78;;
27383;SDS011;14851;51.166;4.760;2023-05-23T06:17:54;18.10;;;6.18;;
27383;SDS011;14851;51.166;4.760;2023-05-23T06:20:20;18.70;;;7.00;;
27383;SDS011;14851;51.166;4.760;2023-05-23T06:22:47;13.43;;;5.15;;
27383;SDS011;14851;51.166;4.760;2023-05-23T06:25:13;13.13;;;5.18;;
27383;SDS011;14851;51.166;4.760;2023-05-23T06:27:42;13.50;;;5.18;;
27383;SDS011;14851;51.166;4.760;2023-05-23T06:30:10;19.08;;;5.85;;
27383;SDS011;14851;51.166;4.760;2023-05-23T06:32:36;15.60;;;5.72;;
27383;SDS011;14851;51.166;4.760;2023-05-23T06:35:03;16.75;;;5.80;;
27383;SDS011;14851;51.166;4.760;2023-05-23T06:37:29;16.25;;;5.13;;
27383;SDS011;14851;51.166;4.760;2023-05-23T06:39:55;15.50;;;5.10;;
27383;SDS011;14851;51.166;4.760;2023-05-23T06:42:21;14.20;;;4.78;;
27383;SDS011;14851;51.166;4.760;2023-05-23T06:45:00;12.65;;;4.85;;
27383;SDS011;14851;51.166;4.760;2023-05-23T06:47:26;13.63;;;5.40;;
27383;SDS011;14851;51.166;4.760;2023-05-23T06:49:52;13.98;;;5.28;;
27383;SDS011;14851;51.166;4.760;2023-05-23T06:52:19;11.48;;;4.97;;
27383;SDS011;14851;51.166;4.760;2023-05-23T06:54:45;15.68;;;5.18;;
27383;SDS011;14851;51.166;4.760;2023-05-23T06:57:13;11.60;;;4.55;;
27383;SDS011;14851;51.166;4.760;2023-05-23T06:59:39;14.98;;;5.25;;
27383;SDS011;14851;51.166;4.760;2023-05-23T07:02:05;11.77;;;4.53;;
27383;SDS011;14851;51.166;4.760;2023-05-23T07:04:33;11.60;;;4.90;;
27383;SDS011;14851;51.166;4.760;2023-05-23T07:07:11;17.98;;;5.25;;
27383;SDS011;14851;51.166;4.760;2023-05-23T07:09:39;12.75;;;5.13;;
27383;SDS011;14851;51.166;4.760;2023-05-23T07:12:09;13.07;;;4.88;;
27383;SDS011;14851;51.166;4.760;2023-05-23T07:14:42;13.90;;;5.70;;
27383;SDS011;14851;51.166;4.760;2023-05-23T07:17:09;10.82;;;5.15;;
27383;SDS011;14851;51.166;4.760;2023-05-23T07:19:36;15.55;;;5.38;;
27383;SDS011;14851;51.166;4.760;2023-05-23T07:22:02;14.63;;;5.25;;
27383;SDS011;14851;51.166;4.760;2023-05-23T07:24:30;14.43;;;6.05;;
27383;SDS011;14851;51.166;4.760;2023-05-23T07:26:59;13.73;;;5.72;;
27383;SDS011;14851;51.166;4.760;2023-05-23T07:29:26;13.27;;;5.40;;
27383;SDS011;14851;51.166;4.760;2023-05-23T07:31:55;19.00;;;5.50;;
27383;SDS011;14851;51.166;4.760;2023-05-23T07:34:22;11.65;;;5.95;;
27383;SDS011;14851;51.166;4.760;2023-05-23T07:36:57;14.48;;;5.78;;
27383;SDS011;14851;51.166;4.760;2023-05-23T07:39:26;14.25;;;5.88;;
27383;SDS011;14851;51.166;4.760;2023-05-23T07:41:54;14.45;;;6.20;;
27383;SDS011;14851;51.166;4.760;2023-05-23T07:44:20;17.02;;;6.20;;
27383;SDS011;14851;51.166;4.760;2023-05-23T07:46:46;14.65;;;5.80;;
27383;SDS011;14851;51.166;4.760;2023-05-23T07:49:15;14.82;;;6.88;;
27383;SDS011;14851;51.166;4.760;2023-05-23T07:51:41;13.77;;;6.25;;
27383;SDS011;14851;51.166;4.760;2023-05-23T07:54:08;16.58;;;6.20;;
27383;SDS011;14851;51.166;4.760;2023-05-23T07:56:37;17.73;;;7.72;;
27383;SDS011;14851;51.166;4.760;2023-05-23T07:59:05;15.85;;;6.40;;
27383;SDS011;14851;51.166;4.760;2023-05-23T08:01:33;15.15;;;6.75;;
27383;SDS011;14851;51.166;4.760;2023-05-23T08:04:04;18.73;;;6.43;;
27383;SDS011;14851;51.166;4.760;2023-05-23T08:06:36;18.83;;;7.05;;
27383;SDS011;14851;51.166;4.760;2023-05-23T08:09:06;17.08;;;7.40;;
27383;SDS011;14851;51.166;4.760;2023-05-23T08:11:36;12.40;;;5.93;;
27383;SDS011;14851;51.166;4.760;2023-05-23T08:14:05;12.10;;;6.45;;
27383;SDS011;14851;51.166;4.760;2023-05-23T08:16:37;14.93;;;6.18;;
27383;SDS011;14851;51.166;4.760;2023-05-23T08:19:19;15.18;;;7.00;;
27383;SDS011;14851;51.166;4.760;2023-05-23T08:21:45;11.13;;;6.30;;
27383;SDS011;14851;51.166;4.760;2023-05-23T08:24:11;13.45;;;6.78;;
27383;SDS011;14851;51.166;4.760;2023-05-23T08:26:38;14.85;;;7.38;;
27383;SDS011;14851;51.166;4.760;2023-05-23T08:29:08;14.43;;;6.28;;
27383;SDS011;14851;51.166;4.760;2023-05-23T08:31:35;16.73;;;6.47;;
27383;SDS011;14851;51.166;4.760;2023-05-23T08:34:01;13.45;;;6.32;;
27383;SDS011;14851;51.166;4.760;2023-05-23T08:36:28;14.02;;;6.57;;
27383;SDS011;14851;51.166;4.760;2023-05-23T08:38:58;14.35;;;6.85;;
27383;SDS011;14851;51.166;4.760;2023-05-23T08:41:30;12.20;;;6.00;;
27383;SDS011;14851;51.166;4.760;2023-05-23T08:44:03;12.40;;;6.55;;
27383;SDS011;14851;51.166;4.760;2023-05-23T08:46:37;16.20;;;6.93;;
27383;SDS011;14851;51.166;4.760;2023-05-23T08:49:11;13.40;;;6.38;;
27383;SDS011;14851;51.166;4.760;2023-05-23T08:51:42;9.50;;;6.13;;
27383;SDS011;14851;51.166;4.760;2023-05-23T08:54:14;16.85;;;6.30;;
27383;SDS011;14851;51.166;4.760;2023-05-23T08:56:43;10.05;;;5.32;;
27383;SDS011;14851;51.166;4.760;2023-05-23T08:59:13;15.48;;;6.03;;
27383;SDS011;14851;51.166;4.760;2023-05-23T09:01:44;13.57;;;6.43;;
27383;SDS011;14851;51.166;4.760;2023-05-23T09:04:13;13.13;;;5.97;;
27383;SDS011;14851;51.166;4.760;2023-05-23T09:06:51;14.07;;;6.07;;
27383;SDS011;14851;51.166;4.760;2023-05-23T09:09:21;12.43;;;6.45;;
27383;SDS011;14851;51.166;4.760;2023-05-23T09:11:48;17.63;;;6.28;;
27383;SDS011;14851;51.166;4.760;2023-05-23T09:14:15;11.10;;;5.43;;
27383;SDS011;14851;51.166;4.760;2023-05-23T09:16:46;13.85;;;5.47;;
27383;SDS011;14851;51.166;4.760;2023-05-23T09:19:20;12.98;;;5.20;;
27383;SDS011;14851;51.166;4.760;2023-05-23T09:21:55;11.00;;;5.20;;
27383;SDS011;14851;51.166;4.760;2023-05-23T09:24:32;13.18;;;5.80;;
27383;SDS011;14851;51.166;4.760;2023-05-23T09:27:00;13.35;;;6.20;;
27383;SDS011;14851;51.166;4.760;2023-05-23T09:29:27;11.43;;;5.60;;
27383;SDS011;14851;51.166;4.760;2023-05-23T09:32:13;12.73;;;5.97;;
27383;SDS011;14851;51.166;4.760;2023-05-23T09:34:55;10.27;;;6.05;;
27383;SDS011;14851;51.166;4.760;2023-05-23T09:37:44;14.50;;;6.88;;
27383;SDS011;14851;51.166;4.760;2023-05-23T09:40:13;13.88;;;6.40;;
27383;SDS011;14851;51.166;4.760;2023-05-23T09:42:46;12.40;;;5.68;;
27383;SDS011;14851;51.166;4.760;2023-05-23T09:45:13;10.70;;;6.03;;
27383;SDS011;14851;51.166;4.760;2023-05-23T09:47:50;13.73;;;5.70;;
27383;SDS011;14851;51.166;4.760;2023-05-23T09:50:18;10.45;;;6.28;;
27383;SDS011;14851;51.166;4.760;2023-05-23T09:52:45;7.35;;;5.05;;
27383;SDS011;14851;51.166;4.760;2023-05-23T09:55:15;9.60;;;4.53;;
27383;SDS011;14851;51.166;4.760;2023-05-23T09:57:42;10.70;;;5.75;;
27383;SDS011;14851;51.166;4.760;2023-05-23T10:00:09;8.93;;;5.07;;
27383;SDS011;14851;51.166;4.760;2023-05-23T10:05:45;10.18;;;3.90;;
27383;SDS011;14851;51.166;4.760;2023-05-23T10:08:22;10.93;;;4.63;;
27383;SDS011;14851;51.166;4.760;2023-05-23T10:13:44;8.38;;;3.88;;
27383;SDS011;14851;51.166;4.760;2023-05-23T10:16:26;10.68;;;4.35;;
27383;SDS011;14851;51.166;4.760;2023-05-23T10:19:06;11.38;;;4.38;;
27383;SDS011;14851;51.166;4.760;2023-05-23T10:21:42;8.70;;;3.60;;
27383;SDS011;14851;51.166;4.760;2023-05-23T10:24:13;8.00;;;3.88;;
27383;SDS011;14851;51.166;4.760;2023-05-23T10:26:40;7.85;;;3.20;;
27383;SDS011;14851;51.166;4.760;2023-05-23T10:29:07;9.35;;;2.78;;
27383;SDS011;14851;51.166;4.760;2023-05-23T10:31:35;8.73;;;3.38;;
27383;SDS011;14851;51.166;4.760;2023-05-23T10:34:07;6.70;;;2.88;;
27383;SDS011;14851;51.166;4.760;2023-05-23T10:39:40;9.38;;;3.08;;
27383;SDS011;14851;51.166;4.760;2023-05-23T10:45:20;6.35;;;2.25;;
27383;SDS011;14851;51.166;4.760;2023-05-23T10:47:54;8.63;;;2.65;;
27383;SDS011;14851;51.166;4.760;2023-05-23T10:50:33;6.07;;;2.17;;
27383;SDS011;14851;51.166;4.760;2023-05-23T10:53:04;7.80;;;2.60;;
27383;SDS011;14851;51.166;4.760;2023-05-23T10:55:31;9.10;;;2.60;;
27383;SDS011;14851;51.166;4.760;2023-05-23T10:58:17;6.72;;;2.45;;
27383;SDS011;14851;51.166;4.760;2023-05-23T11:00:53;9.43;;;2.90;;
27383;SDS011;14851;51.166;4.760;2023-05-23T11:16:56;9.43;;;2.72;;
27383;SDS011;14851;51.166;4.760;2023-05-23T11:19:23;10.05;;;3.20;;
27383;SDS011;14851;51.166;4.760;2023-05-23T11:21:52;10.25;;;3.00;;
27383;SDS011;14851;51.166;4.760;2023-05-23T11:27:24;12.30;;;2.97;;
27383;SDS011;14851;51.166;4.760;2023-05-23T11:30:11;11.90;;;2.88;;
27383;SDS011;14851;51.166;4.760;2023-05-23T11:32:39;8.80;;;3.17;;
27383;SDS011;14851;51.166;4.760;2023-05-23T11:35:06;13.23;;;3.15;;
27383;SDS011;14851;51.166;4.760;2023-05-23T11:37:36;12.35;;;3.22;;
27383;SDS011;14851;51.166;4.760;2023-05-23T11:42:55;15.57;;;3.42;;
27383;SDS011;14851;51.166;4.760;2023-05-23T11:45:21;12.13;;;3.30;;
27383;SDS011;14851;51.166;4.760;2023-05-23T11:47:48;15.45;;;3.70;;
27383;SDS011;14851;51.166;4.760;2023-05-23T11:50:16;9.88;;;3.15;;
27383;SDS011;14851;51.166;4.760;2023-05-23T11:52:42;10.98;;;2.92;;
27383;SDS011;14851;51.166;4.760;2023-05-23T11:55:10;13.38;;;4.00;;
27383;SDS011;14851;51.166;4.760;2023-05-23T11:57:37;9.30;;;2.97;;
27383;SDS011;14851;51.166;4.760;2023-05-23T12:00:06;15.48;;;3.83;;
27383;SDS011;14851;51.166;4.760;2023-05-23T12:02:38;11.65;;;3.72;;
27383;SDS011;14851;51.166;4.760;2023-05-23T12:07:40;14.77;;;4.55;;
27383;SDS011;14851;51.166;4.760;2023-05-23T12:10:16;14.95;;;4.18;;
27383;SDS011;14851;51.166;4.760;2023-05-23T12:12:46;10.98;;;3.40;;
27383;SDS011;14851;51.166;4.760;2023-05-23T12:15:12;10.43;;;3.25;;
27383;SDS011;14851;51.166;4.760;2023-05-23T12:17:47;13.80;;;3.40;;
27383;SDS011;14851;51.166;4.760;2023-05-23T12:20:15;10.55;;;3.33;;
27383;SDS011;14851;51.166;4.760;2023-05-23T12:22:41;12.50;;;3.35;;
27383;SDS011;14851;51.166;4.760;2023-05-23T12:25:07;12.82;;;3.67;;
27383;SDS011;14851;51.166;4.760;2023-05-23T12:27:35;10.35;;;3.45;;
27383;SDS011;14851;51.166;4.760;2023-05-23T12:30:07;9.25;;;3.03;;
27383;SDS011;14851;51.166;4.760;2023-05-23T12:32:38;12.70;;;3.85;;
27383;SDS011;14851;51.166;4.760;2023-05-23T12:35:06;13.60;;;3.85;;
27383;SDS011;14851;51.166;4.760;2023-05-23T12:37:33;13.50;;;3.58;;
27383;SDS011;14851;51.166;4.760;2023-05-23T12:40:11;11.32;;;3.55;;
27383;SDS011;14851;51.166;4.760;2023-05-23T12:42:54;12.88;;;3.78;;
27383;SDS011;14851;51.166;4.760;2023-05-23T12:45:30;15.18;;;3.60;;
27383;SDS011;14851;51.166;4.760;2023-05-23T12:48:01;14.68;;;3.38;;
27383;SDS011;14851;51.166;4.760;2023-05-23T12:50:28;10.65;;;3.50;;
27383;SDS011;14851;51.166;4.760;2023-05-23T12:52:56;11.50;;;3.25;;
27383;SDS011;14851;51.166;4.760;2023-05-23T12:55:23;9.63;;;2.92;;
27383;SDS011;14851;51.166;4.760;2023-05-23T12:57:49;9.68;;;3.67;;
27383;SDS011;14851;51.166;4.760;2023-05-23T13:00:15;13.70;;;3.50;;
27383;SDS011;14851;51.166;4.760;2023-05-23T13:02:42;14.32;;;3.63;;
27383;SDS011;14851;51.166;4.760;2023-05-23T13:05:08;11.77;;;3.58;;
27383;SDS011;14851;51.166;4.760;2023-05-23T13:07:35;12.50;;;3.63;;
27383;SDS011;14851;51.166;4.760;2023-05-23T13:10:02;15.20;;;3.78;;
27383;SDS011;14851;51.166;4.760;2023-05-23T13:12:31;12.18;;;3.60;;
27383;SDS011;14851;51.166;4.760;2023-05-23T13:14:58;15.20;;;3.88;;
27383;SDS011;14851;51.166;4.760;2023-05-23T13:17:24;10.65;;;3.67;;
27383;SDS011;14851;51.166;4.760;2023-05-23T13:19:50;14.05;;;3.80;;
27383;SDS011;14851;51.166;4.760;2023-05-23T13:22:16;12.48;;;3.63;;
27383;SDS011;14851;51.166;4.760;2023-05-23T13:24:42;9.48;;;3.55;;
27383;SDS011;14851;51.166;4.760;2023-05-23T13:27:08;10.73;;;3.70;;
27383;SDS011;14851;51.166;4.760;2023-05-23T13:29:33;12.35;;;3.22;;
27383;SDS011;14851;51.166;4.760;2023-05-23T13:31:59;12.00;;;3.83;;
27383;SDS011;14851;51.166;4.760;2023-05-23T13:34:25;12.55;;;3.13;;
27383;SDS011;14851;51.166;4.760;2023-05-23T13:36:52;12.50;;;3.28;;
27383;SDS011;14851;51.166;4.760;2023-05-23T13:39:19;9.52;;;3.08;;
27383;SDS011;14851;51.166;4.760;2023-05-23T13:41:50;13.27;;;4.20;;
27383;SDS011;14851;51.166;4.760;2023-05-23T13:44:18;12.55;;;4.07;;
27383;SDS011;14851;51.166;4.760;2023-05-23T13:46:45;13.35;;;3.33;;
27383;SDS011;14851;51.166;4.760;2023-05-23T13:49:10;11.25;;;3.67;;
27383;SDS011;14851;51.166;4.760;2023-05-23T13:51:36;11.88;;;3.15;;
27383;SDS011;14851;51.166;4.760;2023-05-23T13:54:05;11.77;;;3.20;;
27383;SDS011;14851;51.166;4.760;2023-05-23T13:56:31;12.20;;;4.63;;
27383;SDS011;14851;51.166;4.760;2023-05-23T13:58:57;12.40;;;3.63;;
27383;SDS011;14851;51.166;4.760;2023-05-23T14:01:24;12.65;;;3.20;;
27383;SDS011;14851;51.166;4.760;2023-05-23T14:03:50;15.38;;;3.50;;
27383;SDS011;14851;51.166;4.760;2023-05-23T14:06:16;14.95;;;3.58;;
27383;SDS011;14851;51.166;4.760;2023-05-23T14:08:42;12.40;;;3.47;;
27383;SDS011;14851;51.166;4.760;2023-05-23T14:11:07;11.10;;;3.60;;
27383;SDS011;14851;51.166;4.760;2023-05-23T14:13:33;12.98;;;3.70;;
27383;SDS011;14851;51.166;4.760;2023-05-23T14:16:01;12.13;;;3.10;;
27383;SDS011;14851;51.166;4.760;2023-05-23T14:18:29;13.07;;;3.10;;
27383;SDS011;14851;51.166;4.760;2023-05-23T14:20:55;14.35;;;3.03;;
27383;SDS011;14851;51.166;4.760;2023-05-23T14:23:22;15.80;;;3.90;;
27383;SDS011;14851;51.166;4.760;2023-05-23T14:25:49;9.73;;;3.05;;
27383;SDS011;14851;51.166;4.760;2023-05-23T14:28:15;13.57;;;3.53;;
27383;SDS011;14851;51.166;4.760;2023-05-23T14:30:43;14.93;;;3.85;;
27383;SDS011;14851;51.166;4.760;2023-05-23T14:33:09;14.07;;;3.63;;
27383;SDS011;14851;51.166;4.760;2023-05-23T14:35:34;13.63;;;3.55;;
27383;SDS011;14851;51.166;4.760;2023-05-23T14:38:03;12.68;;;2.85;;
27383;SDS011;14851;51.166;4.760;2023-05-23T14:40:28;12.23;;;3.03;;
27383;SDS011;14851;51.166;4.760;2023-05-23T14:42:57;12.77;;;3.30;;
27383;SDS011;14851;51.166;4.760;2023-05-23T14:45:23;13.02;;;3.67;;
27383;SDS011;14851;51.166;4.760;2023-05-23T14:47:49;7.55;;;2.83;;
27383;SDS011;14851;51.166;4.760;2023-05-23T14:50:15;11.15;;;3.10;;
27383;SDS011;14851;51.166;4.760;2023-05-23T14:52:41;10.13;;;3.13;;
27383;SDS011;14851;51.166;4.760;2023-05-23T14:55:07;13.15;;;2.92;;
27383;SDS011;14851;51.166;4.760;2023-05-23T14:57:33;8.73;;;3.15;;
27383;SDS011;14851;51.166;4.760;2023-05-23T14:59:59;11.80;;;3.25;;
27383;SDS011;14851;51.166;4.760;2023-05-23T15:02:27;11.43;;;3.00;;
27383;SDS011;14851;51.166;4.760;2023-05-23T15:04:53;15.38;;;3.80;;
27383;SDS011;14851;51.166;4.760;2023-05-23T15:07:19;9.65;;;3.50;;
27383;SDS011;14851;51.166;4.760;2023-05-23T15:09:44;12.63;;;3.58;;
27383;SDS011;14851;51.166;4.760;2023-05-23T15:12:12;14.05;;;2.95;;
27383;SDS011;14851;51.166;4.760;2023-05-23T15:14:40;14.65;;;3.65;;
27383;SDS011;14851;51.166;4.760;2023-05-23T15:17:07;10.57;;;3.08;;
27383;SDS011;14851;51.166;4.760;2023-05-23T15:19:34;11.90;;;3.13;;
27383;SDS011;14851;51.166;4.760;2023-05-23T15:22:02;11.32;;;2.80;;
27383;SDS011;14851;51.166;4.760;2023-05-23T15:24:28;12.07;;;2.78;;
27383;SDS011;14851;51.166;4.760;2023-05-23T15:26:57;11.50;;;2.83;;
27383;SDS011;14851;51.166;4.760;2023-05-23T15:29:22;13.82;;;2.92;;